Time;durP1;ratioP1;P1;durP2;ratioP2;P2;SDS_P1;SDS_P2;PMS_P1;PMS_P2;Temp;Humidity;BMP_temperature;BMP_pressure;BME280_temperature;BME280_humidity;BME280_pressure;Samples;Min_cycle;Max_cycle;Signal;HPM_P1;HPM_P2
2023/06/11 00:01:54;;;;;;;9.83;7.93;;;19.70;99.90;;;;;;6349306;28;20229;-61
2023/06/11 00:04:57;;;;;;;8.53;7.23;;;19.60;99.90;;;;;;6350491;28;20221;-61
2023/06/11 00:08:02;;;;;;;7.17;6.57;;;19.60;99.90;;;;;;6347031;28;20323;-61
2023/06/11 00:11:06;;;;;;;9.27;8.37;;;19.60;99.90;;;;;;6350757;28;20228;-61
2023/06/11 00:14:10;;;;;;;7.37;6.67;;;19.60;99.90;;;;;;6351355;28;20213;-61
2023/06/11 00:17:13;;;;;;;8.03;7.33;;;19.60;99.90;;;;;;6350636;28;20201;-60
2023/06/11 00:20:20;;;;;;;10.17;8.13;;;19.70;99.90;;;;;;6349992;28;20244;-60
2023/06/11 00:23:24;;;;;;;8.43;7.23;;;19.70;99.90;;;;;;6349449;28;20674;-60
2023/06/11 00:26:28;;;;;;;7.60;6.77;;;19.70;99.90;;;;;;6349013;28;20240;-60
2023/06/11 00:29:31;;;;;;;7.53;6.73;;;19.70;99.90;;;;;;6325076;28;20225;-60
2023/06/11 00:32:35;;;;;;;7.10;6.47;;;19.80;99.90;;;;;;6349494;28;20692;-60
2023/06/11 00:35:39;;;;;;;8.00;7.40;;;19.70;99.90;;;;;;6349589;28;20634;-60
2023/06/11 00:38:42;;;;;;;9.23;7.30;;;19.80;99.90;;;;;;6349721;28;20229;-60
2023/06/11 00:41:48;;;;;;;7.40;6.77;;;19.70;99.90;;;;;;6349314;28;20309;-61
2023/06/11 00:44:51;;;;;;;7.83;7.17;;;19.70;99.90;;;;;;6349407;28;20233;-60
2023/06/11 00:47:56;;;;;;;8.50;7.70;;;19.70;99.90;;;;;;6349701;28;20221;-60
2023/06/11 00:50:59;;;;;;;11.77;7.30;;;19.70;99.90;;;;;;6349498;28;20231;-61
2023/06/11 00:54:03;;;;;;;7.57;6.87;;;19.70;99.90;;;;;;6349461;28;20221;-61
2023/06/11 00:57:07;;;;;;;7.10;6.50;;;19.70;99.90;;;;;;6349102;28;20343;-61
2023/06/11 01:00:13;;;;;;;8.37;7.57;;;19.60;99.90;;;;;;6349313;28;20225;-61
2023/06/11 01:03:21;;;;;;;7.57;6.97;;;19.60;99.90;;;;;;6349001;28;20235;-61
2023/06/11 01:06:28;;;;;;;8.50;7.70;;;19.60;99.90;;;;;;6349217;28;20578;-61
2023/06/11 01:09:33;;;;;;;7.30;6.60;;;19.60;99.90;;;;;;6349193;28;20298;-61
2023/06/11 01:12:38;;;;;;;7.73;7.03;;;19.60;99.90;;;;;;6350390;28;20312;-62
2023/06/11 01:15:41;;;;;;;7.30;6.23;;;19.50;99.90;;;;;;6354287;28;20225;-61
2023/06/11 01:18:53;;;;;;;7.67;7.00;;;19.60;99.90;;;;;;6353875;28;20557;-61
2023/06/11 01:22:01;;;;;;;8.90;7.90;;;19.50;99.90;;;;;;6353812;28;20243;-62
2023/06/11 01:25:18;;;;;;;9.60;7.27;;;19.40;99.90;;;;;;6353684;28;20249;-62
2023/06/11 01:28:27;;;;;;;8.00;7.30;;;19.40;99.90;;;;;;6353475;28;20225;-61
2023/06/11 01:31:37;;;;;;;9.03;7.20;;;19.40;99.90;;;;;;6336197;28;20237;-60
2023/06/11 01:34:42;;;;;;;6.57;6.07;;;19.40;99.90;;;;;;6354003;28;20297;-60
2023/06/11 01:37:46;;;;;;;7.10;6.50;;;19.40;99.90;;;;;;6353780;28;20235;-60
2023/06/11 01:40:49;;;;;;;7.60;7.00;;;19.40;99.90;;;;;;6353558;28;20681;-60
2023/06/11 01:43:54;;;;;;;7.70;7.00;;;19.40;99.90;;;;;;6353127;28;20221;-60
2023/06/11 01:46:57;;;;;;;6.70;6.10;;;19.40;99.90;;;;;;6353157;28;20221;-60
2023/06/11 01:50:02;;;;;;;6.50;5.90;;;19.40;99.90;;;;;;6353268;28;20321;-60
2023/06/11 01:53:06;;;;;;;7.10;6.43;;;19.40;99.90;;;;;;6353511;28;20217;-60
2023/06/11 01:56:09;;;;;;;6.87;6.30;;;19.40;99.90;;;;;;6353278;28;20198;-60
2023/06/11 01:59:17;;;;;;;7.57;6.80;;;19.40;99.90;;;;;;6353185;28;20493;-60
2023/06/11 02:02:20;;;;;;;7.03;6.30;;;19.40;99.90;;;;;;6353051;28;20375;-60
2023/06/11 02:05:24;;;;;;;8.00;6.80;;;19.40;99.90;;;;;;6353187;28;20550;-60
2023/06/11 02:08:27;;;;;;;7.03;6.43;;;19.40;99.90;;;;;;6352569;28;20669;-60
2023/06/11 02:11:30;;;;;;;7.60;6.90;;;19.30;99.90;;;;;;6352605;28;20236;-61
2023/06/11 02:14:35;;;;;;;7.47;6.77;;;19.30;99.90;;;;;;6352478;28;20221;-61
2023/06/11 02:17:38;;;;;;;7.50;6.83;;;19.30;99.90;;;;;;6350749;28;20214;-61
2023/06/11 02:20:41;;;;;;;8.67;7.37;;;19.30;99.90;;;;;;6345228;28;20655;-61
2023/06/11 02:23:44;;;;;;;7.27;6.57;;;19.30;99.90;;;;;;6350761;28;20220;-61
2023/06/11 02:26:47;;;;;;;7.13;6.43;;;19.30;99.90;;;;;;6350555;27;20222;-61
2023/06/11 02:29:52;;;;;;;6.90;6.30;;;19.30;99.90;;;;;;6361439;27;20226;-63
2023/06/11 02:32:55;;;;;;;7.70;6.90;;;19.30;99.90;;;;;;6350041;27;20214;-62
2023/06/11 02:35:58;;;;;;;10.07;6.67;;;19.20;99.90;;;;;;6357069;27;20230;-62
2023/06/11 02:39:02;;;;;;;7.43;6.17;;;19.30;99.90;;;;;;6361012;27;20232;-62
2023/06/11 02:42:06;;;;;;;8.23;5.90;;;19.30;99.90;;;;;;6357922;27;20267;-62
2023/06/11 02:45:11;;;;;;;6.90;6.40;;;19.30;99.90;;;;;;6358300;27;20324;-62
2023/06/11 02:48:14;;;;;;;7.60;6.90;;;19.30;99.90;;;;;;6352705;27;20546;-62
2023/06/11 02:51:18;;;;;;;6.87;6.27;;;19.30;99.90;;;;;;6357910;27;20561;-62
2023/06/11 02:54:21;;;;;;;7.03;6.43;;;19.20;99.90;;;;;;6360800;27;20228;-62
2023/06/11 02:57:24;;;;;;;6.40;5.80;;;19.20;99.90;;;;;;6364251;27;20209;-62
2023/06/11 03:00:28;;;;;;;9.10;6.60;;;19.10;99.90;;;;;;6354608;27;20259;-61
2023/06/11 03:03:32;;;;;;;7.70;6.33;;;19.10;99.90;;;;;;6354032;27;20561;-61
2023/06/11 03:06:35;;;;;;;6.30;5.70;;;19.00;99.90;;;;;;6352115;28;20222;-62
2023/06/11 03:09:38;;;;;;;7.60;7.00;;;19.00;99.90;;;;;;6351744;28;20546;-62
2023/06/11 03:12:41;;;;;;;12.40;6.97;;;18.90;99.90;;;;;;6351588;28;20239;-62
2023/06/11 03:15:46;;;;;;;7.00;6.30;;;18.80;99.90;;;;;;6351304;28;20229;-62
2023/06/11 03:18:49;;;;;;;9.93;6.47;;;18.80;99.90;;;;;;6351203;28;20284;-62
2023/06/11 03:21:52;;;;;;;7.17;6.57;;;18.80;99.90;;;;;;6340972;28;20318;-61
2023/06/11 03:24:56;;;;;;;7.07;6.30;;;18.90;99.90;;;;;;6351353;28;20229;-65
2023/06/11 03:27:59;;;;;;;7.00;6.40;;;18.80;99.90;;;;;;6348219;28;20225;-62
2023/06/11 03:31:03;;;;;;;6.70;6.20;;;18.80;99.90;;;;;;6337271;28;20226;-62
2023/06/11 03:34:07;;;;;;;7.30;5.93;;;18.80;99.90;;;;;;6347651;28;20232;-62
2023/06/11 03:37:10;;;;;;;7.10;6.43;;;18.90;99.90;;;;;;6349969;28;20302;-61
2023/06/11 03:40:14;;;;;;;6.63;6.03;;;18.80;99.90;;;;;;6350566;28;20237;-61
2023/06/11 03:43:17;;;;;;;7.00;6.30;;;18.90;99.90;;;;;;6350524;28;20311;-61
2023/06/11 03:46:22;;;;;;;6.30;5.70;;;18.90;99.90;;;;;;6350145;28;20642;-61
2023/06/11 03:49:26;;;;;;;8.07;7.27;;;18.80;99.90;;;;;;6350377;28;20229;-61
2023/06/11 03:52:29;;;;;;;8.20;7.40;;;18.70;99.90;;;;;;6350443;28;20218;-61
2023/06/11 03:55:32;;;;;;;7.00;6.40;;;18.70;99.90;;;;;;6349937;28;20240;-61
2023/06/11 03:58:35;;;;;;;7.87;7.17;;;18.70;99.90;;;;;;6350122;28;20513;-61
2023/06/11 04:01:41;;;;;;;7.87;7.07;;;18.80;99.90;;;;;;6350030;28;20257;-62
2023/06/11 04:04:44;;;;;;;8.03;7.27;;;18.70;99.90;;;;;;6350254;28;20613;-63
2023/06/11 04:07:47;;;;;;;7.60;6.80;;;18.80;99.90;;;;;;6350109;28;20251;-62
2023/06/11 04:10:50;;;;;;;10.23;6.63;;;18.80;99.90;;;;;;6350082;28;20235;-62
2023/06/11 04:13:54;;;;;;;8.33;7.53;;;18.80;99.90;;;;;;6349955;28;20225;-61
2023/06/11 04:16:58;;;;;;;8.77;6.70;;;18.90;99.90;;;;;;6349840;28;20277;-62
2023/06/11 04:20:02;;;;;;;7.20;6.57;;;18.90;99.90;;;;;;6349533;28;20245;-62
2023/06/11 04:23:06;;;;;;;6.40;5.90;;;18.90;99.90;;;;;;6349931;28;20198;-61
2023/06/11 04:26:10;;;;;;;7.53;6.80;;;19.00;99.90;;;;;;6350201;28;20206;-62
2023/06/11 04:29:13;;;;;;;8.07;7.00;;;19.00;99.90;;;;;;6347279;28;20235;-61
2023/06/11 04:32:20;;;;;;;7.70;7.00;;;19.10;99.90;;;;;;6332008;28;20227;-61
2023/06/11 04:35:24;;;;;;;7.63;6.83;;;19.10;99.90;;;;;;6349489;28;20231;-62
2023/06/11 04:38:28;;;;;;;6.70;6.20;;;19.20;99.90;;;;;;6349535;28;20233;-62
2023/06/11 04:41:32;;;;;;;7.90;7.10;;;19.20;99.90;;;;;;6349264;28;20233;-62
2023/06/11 04:44:36;;;;;;;8.33;6.60;;;19.20;99.90;;;;;;6349037;28;20240;-62
2023/06/11 04:47:41;;;;;;;7.67;6.97;;;19.40;99.90;;;;;;6348434;28;20573;-62
2023/06/11 04:50:44;;;;;;;7.63;6.80;;;19.50;99.90;;;;;;6372979;27;20255;-63
2023/06/11 04:53:47;;;;;;;7.47;6.70;;;19.60;99.90;;;;;;6373806;27;20680;-62
2023/06/11 04:56:51;;;;;;;7.87;7.20;;;19.70;99.90;;;;;;6374746;28;20236;-63
2023/06/11 04:59:54;;;;;;;7.10;6.50;;;19.80;99.90;;;;;;6374597;28;20235;-62
2023/06/11 05:03:01;;;;;;;6.77;6.10;;;19.80;99.90;;;;;;6375062;28;20247;-62
2023/06/11 05:06:05;;;;;;;7.77;7.17;;;19.90;99.90;;;;;;6375181;28;20231;-62
2023/06/11 05:09:08;;;;;;;6.60;6.00;;;19.90;99.90;;;;;;6375445;28;20220;-62
2023/06/11 05:12:12;;;;;;;8.00;7.07;;;20.00;99.90;;;;;;6375167;28;20259;-63
2023/06/11 05:15:15;;;;;;;6.70;6.17;;;20.20;99.90;;;;;;6374436;28;20224;-63
2023/06/11 05:18:20;;;;;;;7.77;6.73;;;20.30;99.90;;;;;;6374466;28;20252;-63
2023/06/11 05:21:23;;;;;;;7.10;6.47;;;20.40;99.90;;;;;;6374320;28;20370;-62
2023/06/11 05:24:29;;;;;;;7.07;6.40;;;20.50;99.90;;;;;;6374215;28;20683;-63
2023/06/11 05:27:32;;;;;;;6.97;6.37;;;20.50;99.90;;;;;;6362624;28;20604;-63
2023/06/11 05:30:37;;;;;;;6.73;6.13;;;20.60;99.90;;;;;;6341049;28;20226;-62
2023/06/11 05:33:41;;;;;;;5.93;5.43;;;20.70;99.90;;;;;;6341709;28;20221;-62
2023/06/11 05:36:45;;;;;;;6.70;6.20;;;20.80;99.90;;;;;;6348968;28;20236;-62
2023/06/11 05:39:49;;;;;;;6.53;6.03;;;20.90;99.90;;;;;;6348577;28;20320;-62
2023/06/11 05:42:52;;;;;;;5.43;4.97;;;21.00;99.90;;;;;;6348903;28;20226;-63
2023/06/11 05:45:55;;;;;;;6.43;5.93;;;21.10;99.90;;;;;;6348563;28;20237;-62
2023/06/11 05:49:00;;;;;;;6.47;5.97;;;21.30;99.90;;;;;;6348806;28;20241;-62
2023/06/11 05:52:04;;;;;;;5.93;5.27;;;21.30;99.90;;;;;;6348853;28;20232;-61
2023/06/11 05:55:07;;;;;;;5.70;5.20;;;21.30;99.90;;;;;;6350118;28;20221;-61
2023/06/11 05:58:11;;;;;;;7.57;6.77;;;21.30;99.90;;;;;;6352573;27;20217;-63
2023/06/11 06:01:15;;;;;;;6.40;5.90;;;21.30;99.90;;;;;;6371521;27;20349;-64
2023/06/11 06:04:19;;;;;;;6.60;6.10;;;21.40;99.90;;;;;;6378183;27;20633;-63
2023/06/11 06:07:23;;;;;;;6.67;6.07;;;21.30;99.90;;;;;;6354669;27;20224;-62
2023/06/11 06:10:26;;;;;;;6.77;6.27;;;21.30;99.90;;;;;;6365752;27;20250;-63
2023/06/11 06:13:29;;;;;;;7.27;6.57;;;21.30;99.90;;;;;;6372745;27;20224;-62
2023/06/11 06:16:32;;;;;;;7.70;7.00;;;21.30;99.90;;;;;;6361578;27;20216;-62
2023/06/11 06:19:37;;;;;;;8.00;6.23;;;21.20;99.90;;;;;;6362942;27;20218;-62
2023/06/11 06:22:41;;;;;;;6.37;5.80;;;21.20;99.90;;;;;;6365071;27;20285;-62
2023/06/11 06:25:45;;;;;;;9.60;6.77;;;21.20;99.90;;;;;;6367026;27;20864;-61
2023/06/11 06:28:48;;;;;;;6.97;6.33;;;21.20;99.90;;;;;;6355823;27;20366;-61
2023/06/11 06:31:51;;;;;;;6.43;5.93;;;21.30;99.90;;;;;;6334437;28;20675;-61
2023/06/11 06:34:55;;;;;;;7.50;6.90;;;21.30;99.90;;;;;;6342878;28;20321;-61
2023/06/11 06:37:59;;;;;;;7.80;7.20;;;21.40;99.90;;;;;;6352088;28;20564;-61
2023/06/11 06:41:03;;;;;;;7.53;6.93;;;21.50;99.90;;;;;;6352067;28;20221;-62
2023/06/11 06:44:06;;;;;;;7.60;7.00;;;21.60;99.90;;;;;;6351509;28;20228;-62
2023/06/11 06:47:09;;;;;;;8.93;8.23;;;21.60;99.90;;;;;;6352133;28;20618;-62
2023/06/11 06:50:14;;;;;;;8.10;7.40;;;21.70;99.90;;;;;;6351485;28;20236;-62
2023/06/11 06:53:17;;;;;;;9.80;9.00;;;21.70;99.90;;;;;;6351888;28;20212;-62
2023/06/11 06:56:21;;;;;;;8.20;7.40;;;21.90;99.90;;;;;;6351629;28;20225;-61
2023/06/11 06:59:25;;;;;;;12.30;8.90;;;21.90;99.90;;;;;;6352026;28;20231;-61
2023/06/11 07:02:28;;;;;;;8.20;7.50;;;22.00;99.90;;;;;;6352006;28;20665;-62
2023/06/11 07:05:33;;;;;;;8.30;7.60;;;22.10;99.90;;;;;;6351575;28;20669;-62
2023/06/11 07:08:38;;;;;;;8.00;7.40;;;22.10;99.90;;;;;;6351738;28;20323;-62
2023/06/11 07:11:42;;;;;;;9.53;8.80;;;22.10;99.90;;;;;;6351241;28;20236;-61
2023/06/11 07:14:45;;;;;;;8.07;7.50;;;22.20;99.90;;;;;;6351849;28;20217;-61
2023/06/11 07:17:48;;;;;;;8.93;8.03;;;22.30;99.90;;;;;;6351130;28;20237;-61
2023/06/11 07:20:52;;;;;;;8.07;7.37;;;22.40;99.90;;;;;;6351313;28;20591;-61
2023/06/11 07:23:57;;;;;;;9.07;8.30;;;22.50;99.90;;;;;;6350990;28;20221;-61
2023/06/11 07:27:00;;;;;;;8.40;7.73;;;22.50;99.90;;;;;;6350854;28;20222;-61
2023/06/11 07:30:03;;;;;;;9.93;8.70;;;22.40;99.90;;;;;;6345595;28;20222;-61
2023/06/11 07:33:07;;;;;;;8.70;7.90;;;22.50;99.90;;;;;;6339265;28;20718;-62
2023/06/11 07:36:11;;;;;;;8.73;7.93;;;22.50;99.90;;;;;;6346053;28;20653;-62
2023/06/11 07:39:15;;;;;;;8.67;7.90;;;22.50;99.90;;;;;;6350985;28;20218;-62
2023/06/11 07:42:18;;;;;;;8.83;8.03;;;22.40;99.90;;;;;;6356977;28;20569;-61
2023/06/11 07:45:21;;;;;;;9.47;8.67;;;22.40;99.90;;;;;;6352099;28;20239;-61
2023/06/11 07:48:25;;;;;;;9.83;9.03;;;22.50;99.90;;;;;;6350884;28;20258;-61
2023/06/11 07:51:31;;;;;;;9.17;8.43;;;22.60;99.90;;;;;;6350701;28;20237;-61
2023/06/11 07:54:34;;;;;;;10.50;9.50;;;22.60;99.90;;;;;;6350670;28;20304;-61
2023/06/11 07:57:37;;;;;;;9.77;8.97;;;22.50;99.90;;;;;;6350403;28;20235;-61
2023/06/11 08:00:41;;;;;;;9.80;9.00;;;22.40;99.90;;;;;;6350449;28;20312;-62
2023/06/11 08:03:44;;;;;;;8.80;8.00;;;22.40;99.90;;;;;;6350067;28;20573;-61
2023/06/11 08:06:49;;;;;;;10.70;9.70;;;22.30;99.90;;;;;;6350452;28;20225;-61
2023/06/11 08:09:52;;;;;;;10.33;9.47;;;22.20;99.90;;;;;;6349928;28;20304;-61
2023/06/11 08:12:55;;;;;;;9.13;8.33;;;22.00;99.90;;;;;;6349501;28;20235;-61
2023/06/11 08:15:58;;;;;;;9.80;9.00;;;21.80;99.90;;;;;;6349903;28;20240;-61
2023/06/11 08:19:02;;;;;;;10.60;9.70;;;21.60;99.90;;;;;;6355357;27;20292;-61
2023/06/11 08:22:06;;;;;;;9.80;8.80;;;21.50;99.90;;;;;;6374694;27;20540;-61
2023/06/11 08:25:11;;;;;;;12.70;11.40;;;21.40;99.90;;;;;;6375407;27;20232;-62
2023/06/11 08:28:14;;;;;;;12.33;11.23;;;21.40;99.90;;;;;;6357866;27;20226;-62
2023/06/11 08:31:18;;;;;;;12.93;11.90;;;21.20;99.90;;;;;;6333652;28;20234;-61
2023/06/11 08:34:21;;;;;;;11.63;10.53;;;21.10;99.90;;;;;;6348277;28;20225;-61
2023/06/11 08:37:26;;;;;;;11.93;10.87;;;20.90;99.90;;;;;;6349513;28;20585;-61
2023/06/11 08:40:30;;;;;;;11.27;10.27;;;20.90;99.90;;;;;;6349447;28;20323;-62
2023/06/11 08:43:33;;;;;;;12.40;11.40;;;20.90;99.90;;;;;;6349035;28;20551;-61
2023/06/11 08:46:36;;;;;;;11.93;10.73;;;20.80;99.90;;;;;;6349312;28;20227;-62
2023/06/11 08:49:41;;;;;;;12.80;10.90;;;20.90;99.90;;;;;;6349041;28;20244;-62
2023/06/11 08:52:49;;;;;;;12.20;11.10;;;20.90;99.90;;;;;;6349323;28;20654;-61
2023/06/11 08:55:53;;;;;;;11.30;10.30;;;21.00;99.90;;;;;;6349128;28;20230;-62
2023/06/11 08:58:57;;;;;;;13.00;11.90;;;21.20;99.90;;;;;;6349356;28;20225;-61
2023/06/11 09:02:01;;;;;;;12.73;11.73;;;21.40;99.90;;;;;;6348714;28;20568;-61
2023/06/11 09:05:05;;;;;;;11.63;10.53;;;21.60;99.90;;;;;;6349777;28;20194;-62
2023/06/11 09:08:09;;;;;;;12.67;11.37;;;21.80;99.90;;;;;;6349369;28;20645;-62
2023/06/11 09:11:16;;;;;;;12.73;11.63;;;22.10;99.90;;;;;;6349161;28;20226;-62
2023/06/11 09:14:20;;;;;;;12.93;11.93;;;22.10;99.90;;;;;;6349772;28;20202;-61
2023/06/11 09:17:25;;;;;;;12.70;11.60;;;22.20;99.90;;;;;;6349466;28;20235;-62
2023/06/11 09:20:31;;;;;;;13.20;11.50;;;22.00;99.90;;;;;;6348956;28;20658;-62
2023/06/11 09:23:39;;;;;;;13.23;12.13;;;21.90;99.90;;;;;;6349132;28;20225;-62
2023/06/11 09:26:50;;;;;;;12.57;11.47;;;21.90;99.90;;;;;;6349480;28;20256;-62
2023/06/11 09:29:53;;;;;;;12.80;11.80;;;21.90;99.90;;;;;;6333845;28;20221;-62
2023/06/11 09:32:59;;;;;;;13.03;11.83;;;21.80;99.90;;;;;;6348665;28;21152;-63
2023/06/11 09:36:11;;;;;;;12.57;11.57;;;21.70;99.90;;;;;;6362719;27;20332;-63
2023/06/11 09:39:17;;;;;;;12.37;11.03;;;21.60;99.90;;;;;;6363731;27;20237;-61
2023/06/11 09:42:24;;;;;;;11.43;10.53;;;21.50;99.90;;;;;;6362307;27;20240;-62
2023/06/11 09:45:28;;;;;;;10.77;9.87;;;21.50;99.90;;;;;;6364446;27;20221;-61
2023/06/11 09:48:31;;;;;;;12.80;11.50;;;21.40;99.90;;;;;;6364626;27;20224;-61
2023/06/11 09:51:36;;;;;;;11.90;10.90;;;21.40;99.90;;;;;;6366310;27;20245;-61
2023/06/11 09:54:43;;;;;;;12.77;11.70;;;21.30;99.90;;;;;;6361602;27;20223;-62
2023/06/11 09:57:47;;;;;;;10.70;9.83;;;21.30;99.90;;;;;;6365513;27;20221;-61
2023/06/11 10:00:52;;;;;;;12.00;10.90;;;21.30;99.90;;;;;;6363479;27;20221;-63
2023/06/11 10:03:55;;;;;;;14.13;11.37;;;21.30;99.90;;;;;;6363914;27;20225;-62
2023/06/11 10:06:59;;;;;;;11.40;10.50;;;21.30;99.90;;;;;;6360816;27;20240;-62
2023/06/11 10:10:05;;;;;;;11.53;10.53;;;21.30;99.90;;;;;;6364388;27;20225;-62
2023/06/11 10:13:08;;;;;;;12.47;11.30;;;21.40;99.90;;;;;;6356986;27;20242;-62
2023/06/11 10:16:15;;;;;;;10.50;9.70;;;21.40;99.90;;;;;;6354287;27;20516;-63
2023/06/11 10:19:18;;;;;;;11.40;10.40;;;21.30;99.90;;;;;;6358100;27;20296;-64
2023/06/11 10:22:22;;;;;;;10.87;10.07;;;21.40;99.90;;;;;;6366015;27;20373;-64
2023/06/11 10:25:33;;;;;;;12.90;11.70;;;21.40;99.90;;;;;;6366265;27;20541;-65
2023/06/11 10:28:37;;;;;;;11.33;10.43;;;21.50;99.90;;;;;;6362804;27;20226;-65
2023/06/11 10:31:42;;;;;;;11.80;10.70;;;21.70;99.90;;;;;;6363820;27;20228;-65
2023/06/11 10:34:48;;;;;;;11.53;10.53;;;21.90;99.90;;;;;;6356230;27;20666;-65
2023/06/11 10:38:01;;;;;;;12.43;11.33;;;22.20;99.90;;;;;;6342909;28;20234;-64
2023/06/11 10:41:06;;;;;;;12.40;11.40;;;22.50;99.90;;;;;;6349298;27;20222;-64
2023/06/11 10:44:11;;;;;;;11.30;10.30;;;22.80;99.90;;;;;;6351862;28;20229;-64
2023/06/11 10:47:14;;;;;;;12.10;10.90;;;22.90;99.90;;;;;;6349725;28;20663;-64
2023/06/11 10:50:25;;;;;;;13.00;11.90;;;23.00;99.90;;;;;;6351242;28;20229;-64
2023/06/11 10:53:37;;;;;;;12.97;11.87;;;23.20;99.90;;;;;;6350751;28;20755;-64
2023/06/11 10:56:41;;;;;;;13.20;12.00;;;23.30;99.90;;;;;;6352136;28;20291;-64
2023/06/11 10:59:45;;;;;;;13.03;12.10;;;23.40;99.90;;;;;;6351668;28;20240;-64
2023/06/11 11:02:50;;;;;;;13.63;12.50;;;23.50;99.90;;;;;;6352194;28;20541;-64
2023/06/11 11:05:55;;;;;;;12.63;11.63;;;23.70;99.90;;;;;;6352506;28;20240;-64
2023/06/11 11:08:59;;;;;;;13.50;12.40;;;23.90;99.90;;;;;;6352652;28;20367;-64
2023/06/11 11:12:06;;;;;;;12.60;11.53;;;24.10;99.90;;;;;;6351478;28;20653;-64
2023/06/11 11:15:12;;;;;;;12.93;11.93;;;24.20;99.90;;;;;;6352238;28;20221;-64
2023/06/11 11:18:16;;;;;;;12.90;11.80;;;24.30;99.90;;;;;;6351882;28;20244;-65
2023/06/11 11:21:27;;;;;;;14.23;13.03;;;24.40;99.90;;;;;;6351734;28;20222;-65
2023/06/11 11:24:35;;;;;;;13.10;12.10;;;24.70;99.90;;;;;;6352018;28;20225;-64
2023/06/11 11:27:44;;;;;;;12.33;11.30;;;24.40;99.90;;;;;;6351362;28;20229;-64
2023/06/11 11:30:47;;;;;;;13.10;11.93;;;24.50;99.90;;;;;;6351364;28;20294;-64
2023/06/11 11:33:51;;;;;;;12.13;11.23;;;24.70;99.90;;;;;;6351336;28;20680;-64
2023/06/11 11:36:55;;;;;;;11.87;11.07;;;24.90;99.90;;;;;;6351273;28;20225;-64
2023/06/11 11:40:02;;;;;;;12.13;11.20;;;25.10;99.90;;;;;;6350861;28;20688;-64
2023/06/11 11:43:13;;;;;;;11.83;10.93;;;25.50;99.90;;;;;;6349991;28;20741;-64
2023/06/11 11:46:17;;;;;;;12.20;11.30;;;25.80;99.90;;;;;;6350930;28;20327;-65
2023/06/11 11:49:21;;;;;;;11.93;11.03;;;26.00;99.90;;;;;;6350984;28;20228;-64
2023/06/11 11:52:27;;;;;;;13.23;12.10;;;25.90;99.90;;;;;;6346104;28;20307;-64
2023/06/11 11:55:33;;;;;;;11.30;10.50;;;26.00;99.90;;;;;;6350475;28;20679;-64
2023/06/11 11:58:41;;;;;;;12.50;11.50;;;25.80;99.90;;;;;;6349773;28;20225;-64
2023/06/11 12:01:54;;;;;;;11.30;10.50;;;25.30;99.90;;;;;;6350483;28;20229;-64
2023/06/11 12:04:59;;;;;;;11.30;10.40;;;25.10;99.90;;;;;;6350420;28;20232;-64
2023/06/11 12:08:02;;;;;;;11.33;10.20;;;25.00;99.90;;;;;;6350641;28;20228;-64
2023/06/11 12:11:06;;;;;;;11.13;10.13;;;25.00;99.90;;;;;;6350431;28;20302;-64
2023/06/11 12:14:11;;;;;;;11.10;10.30;;;25.30;99.90;;;;;;6350646;28;20508;-64
2023/06/11 12:17:15;;;;;;;12.37;11.10;;;25.50;99.90;;;;;;6350114;28;20201;-64
2023/06/11 12:20:18;;;;;;;12.87;11.87;;;25.70;99.90;;;;;;6350248;28;20382;-64
2023/06/11 12:23:21;;;;;;;11.70;10.80;;;25.80;99.90;;;;;;6349971;28;20233;-64
2023/06/11 12:26:28;;;;;;;11.40;10.60;;;26.10;99.90;;;;;;6349970;28;20300;-64
2023/06/11 12:29:33;;;;;;;12.13;10.20;;;26.40;99.90;;;;;;6350808;28;20304;-64
2023/06/11 12:32:36;;;;;;;12.60;11.57;;;26.60;99.90;;;;;;6350762;28;20229;-65
2023/06/11 12:35:39;;;;;;;11.93;10.97;;;26.90;99.60;;;;;;6349571;28;20432;-65
2023/06/11 12:38:45;;;;;;;11.40;10.50;;;27.00;99.40;;;;;;6349999;28;20224;-65
2023/06/11 12:41:48;;;;;;;13.63;12.47;;;27.00;99.10;;;;;;6349647;28;20308;-64
2023/06/11 12:44:52;;;;;;;12.90;11.80;;;27.00;99.90;;;;;;6350195;28;20229;-62
2023/06/11 12:47:56;;;;;;;14.00;12.90;;;26.60;99.90;;;;;;6353226;28;20220;-62
2023/06/11 12:50:59;;;;;;;11.77;10.87;;;26.40;99.90;;;;;;6349656;28;20240;-63
2023/06/11 12:54:03;;;;;;;12.47;11.53;;;26.20;99.90;;;;;;6349706;28;20224;-62
2023/06/11 12:57:07;;;;;;;13.03;11.77;;;25.80;99.90;;;;;;6349649;28;20221;-62
2023/06/11 13:00:12;;;;;;;11.27;10.47;;;25.50;99.90;;;;;;6349567;28;20224;-62
2023/06/11 13:03:17;;;;;;;12.43;11.30;;;25.30;99.90;;;;;;6350448;28;20357;-62
2023/06/11 13:06:20;;;;;;;12.43;11.43;;;25.10;99.90;;;;;;6350529;28;20536;-62
2023/06/11 13:09:24;;;;;;;12.60;11.70;;;24.80;99.90;;;;;;6351771;28;20679;-63
2023/06/11 13:12:28;;;;;;;11.07;10.27;;;24.60;99.90;;;;;;6354952;28;20233;-62
2023/06/11 13:15:33;;;;;;;13.27;12.27;;;24.50;99.90;;;;;;6354484;28;20243;-63
2023/06/11 13:18:36;;;;;;;15.70;14.40;;;24.20;99.90;;;;;;6354886;28;20254;-63
2023/06/11 13:21:39;;;;;;;13.40;12.27;;;24.10;99.90;;;;;;6354385;28;20232;-62
2023/06/11 13:24:43;;;;;;;13.77;12.67;;;23.80;99.90;;;;;;6354498;28;20308;-62
2023/06/11 13:27:46;;;;;;;15.37;13.97;;;23.80;99.90;;;;;;6354194;28;20231;-62
2023/06/11 13:30:52;;;;;;;15.73;14.40;;;23.70;99.90;;;;;;6353894;28;20235;-63
2023/06/11 13:33:59;;;;;;;16.63;15.33;;;23.70;99.90;;;;;;6353700;28;20710;-62
2023/06/11 13:37:02;;;;;;;12.07;11.10;;;23.60;99.90;;;;;;6353888;28;20681;-63
2023/06/11 13:40:06;;;;;;;11.37;10.17;;;23.50;99.90;;;;;;6354062;28;20585;-63
2023/06/11 13:43:10;;;;;;;12.70;11.60;;;23.30;99.90;;;;;;6353959;28;20221;-63
2023/06/11 13:46:15;;;;;;;12.27;11.37;;;23.30;99.90;;;;;;6353819;28;20236;-63
2023/06/11 13:49:18;;;;;;;12.50;11.40;;;23.00;99.90;;;;;;6353669;28;20233;-63
2023/06/11 13:52:23;;;;;;;12.30;11.20;;;23.00;99.90;;;;;;6353373;28;20226;-63
2023/06/11 13:55:27;;;;;;;13.23;12.03;;;23.00;99.90;;;;;;6353596;28;20241;-63
2023/06/11 13:58:30;;;;;;;11.90;10.90;;;23.00;99.90;;;;;;6353605;28;20538;-63
2023/06/11 14:01:35;;;;;;;11.17;10.20;;;23.00;99.90;;;;;;6348648;28;20241;-62
2023/06/11 14:04:38;;;;;;;11.10;10.20;;;23.00;99.90;;;;;;6353796;28;20555;-62
2023/06/11 14:07:42;;;;;;;10.20;9.50;;;23.00;99.90;;;;;;6352868;28;20237;-62
2023/06/11 14:10:45;;;;;;;9.37;8.43;;;23.10;99.90;;;;;;6353144;28;20236;-62
2023/06/11 14:13:48;;;;;;;9.63;8.67;;;23.10;99.90;;;;;;6358839;27;20221;-62
2023/06/11 14:16:53;;;;;;;8.20;7.60;;;23.00;99.90;;;;;;6363176;27;20725;-61
2023/06/11 14:19:56;;;;;;;8.00;7.40;;;22.70;99.90;;;;;;6373112;27;20285;-61
2023/06/11 14:22:59;;;;;;;8.03;7.33;;;22.60;99.90;;;;;;6357954;27;20218;-61
2023/06/11 14:26:02;;;;;;;7.93;7.27;;;22.60;99.90;;;;;;6357949;27;20228;-61
2023/06/11 14:29:09;;;;;;;7.57;6.53;;;22.50;99.90;;;;;;6370799;27;20197;-61
2023/06/11 14:32:17;;;;;;;6.63;6.13;;;22.40;99.90;;;;;;6360910;27;20545;-61
2023/06/11 14:35:20;;;;;;;8.10;7.43;;;22.40;99.90;;;;;;6363803;27;20202;-62
2023/06/11 14:38:24;;;;;;;7.70;7.00;;;22.40;99.90;;;;;;6360876;27;20304;-62
2023/06/11 14:41:27;;;;;;;7.70;7.00;;;22.40;99.90;;;;;;6365644;27;20297;-61
2023/06/11 14:44:30;;;;;;;8.10;7.50;;;22.50;99.90;;;;;;6378358;27;20224;-61
2023/06/11 14:47:36;;;;;;;7.47;6.73;;;22.60;99.90;;;;;;6378015;27;20676;-61
2023/06/11 14:50:39;;;;;;;7.27;6.50;;;22.80;99.90;;;;;;6378200;27;20225;-61
2023/06/11 14:53:42;;;;;;;7.57;6.97;;;23.00;99.90;;;;;;6378185;27;20228;-61
2023/06/11 14:56:45;;;;;;;9.43;8.73;;;23.20;99.90;;;;;;6378063;27;20234;-61
2023/06/11 14:59:49;;;;;;;8.73;7.83;;;23.30;99.90;;;;;;6377840;27;20228;-61
2023/06/11 15:02:54;;;;;;;8.73;8.03;;;23.30;99.90;;;;;;6372824;27;20221;-61
2023/06/11 15:05:59;;;;;;;9.30;8.50;;;23.20;99.90;;;;;;6369191;27;20278;-62
2023/06/11 15:09:03;;;;;;;10.67;9.80;;;23.20;99.90;;;;;;6377378;27;20228;-61
2023/06/11 15:12:07;;;;;;;8.53;7.83;;;23.10;99.90;;;;;;6374173;27;20793;-61
2023/06/11 15:15:11;;;;;;;9.83;9.03;;;23.00;99.90;;;;;;6357000;27;20227;-62
2023/06/11 15:18:15;;;;;;;8.10;7.40;;;22.90;99.90;;;;;;6363410;27;20243;-61
2023/06/11 15:21:18;;;;;;;9.53;8.83;;;22.90;99.90;;;;;;6362158;27;20224;-61
2023/06/11 15:24:22;;;;;;;9.37;8.50;;;22.80;99.90;;;;;;6355379;27;20223;-61
2023/06/11 15:27:25;;;;;;;17.53;8.40;;;22.80;99.90;;;;;;6351653;27;20244;-62
2023/06/11 15:30:28;;;;;;;8.63;8.03;;;22.70;99.90;;;;;;6335952;28;20225;-61
2023/06/11 15:33:33;;;;;;;9.03;8.23;;;22.70;99.90;;;;;;6336202;28;20221;-61
2023/06/11 15:36:36;;;;;;;8.63;7.93;;;22.80;99.90;;;;;;6350228;28;20657;-61
2023/06/11 15:39:39;;;;;;;8.67;7.97;;;22.80;99.90;;;;;;6325537;28;20312;-61
2023/06/11 15:42:42;;;;;;;9.57;8.83;;;22.80;99.90;;;;;;6325713;28;20233;-62
2023/06/11 15:45:49;;;;;;;9.23;8.43;;;22.80;99.90;;;;;;6331599;28;20363;-62
2023/06/11 15:48:54;;;;;;;8.90;8.23;;;22.90;99.90;;;;;;6350909;28;20225;-63